Time,TemperatureF,DewpointF,PressureIn,WindDirection,WindDirectionDegrees,WindSpeedMPH,WindSpeedGustMPH,Humidity,HourlyPrecipIn,Conditions,Clouds,dailyrainin,SoftwareType,DateUTC
2013-01-17 00:01:00,64.6,64.0,30.05,SE,135,0.0,0.0,98,0.00,,,0.00,meteohub,2013-01-17 05:01:00,
2013-01-17 00:02:00,64.4,63.9,30.05,SE,135,0.0,0.0,98,0.00,,,0.00,meteohub,2013-01-17 05:02:00,
2013-01-17 00:05:00,64.4,63.9,30.05,SE,135,0.0,0.0,98,0.00,,,0.00,meteohub,2013-01-17 05:05:00,
2013-01-17 00:08:00,64.6,64.0,30.05,SE,135,0.0,0.0,98,0.00,,,0.00,meteohub,2013-01-17 05:08:00,
2013-01-17 00:13:00,64.6,64.2,30.05,SW,225,0.0,0.0,99,0.00,,,0.00,meteohub,2013-01-17 05:13:00,
2013-01-17 00:18:00,64.8,64.4,30.05,South,180,0.0,0.0,99,0.00,,,0.00,meteohub,2013-01-17 05:18:00,
2013-01-17 00:23:00,64.9,64.6,30.05,SW,225,0.0,0.0,99,0.00,,,0.00,meteohub,2013-01-17 05:23:00,
2013-01-17 00:28:00,64.9,64.6,30.05,SW,225,0.0,1.0,99,0.00,,,0.00,meteohub,2013-01-17 05:28:00,
2013-01-17 00:33:00,64.9,64.6,30.05,SW,225,0.0,1.0,99,0.00,,,0.00,meteohub,2013-01-17 05:33:00,
2013-01-17 00:38:00,64.8,64.4,30.05,SW,225,0.0,0.0,99,0.00,,,0.00,meteohub,2013-01-17 05:38:00,
2013-01-17 00:43:00,64.6,64.2,30.05,SW,225,0.0,0.0,99,0.00,,,0.00,meteohub,2013-01-17 05:43:00,
2013-01-17 00:48:00,64.8,64.4,30.05,SW,225,0.0,0.0,99,0.00,,,0.00,meteohub,2013-01-17 05:48:00,
2013-01-17 00:53:00,64.8,64.4,30.05,SW,225,0.0,0.0,99,0.00,,,0.00,meteohub,2013-01-17 05:53:00,
2013-01-17 00:58:00,64.9,64.6,30.05,SW,225,2.0,0.0,99,0.00,,,0.00,meteohub,2013-01-17 05:58:00,
2013-01-17 01:03:00,65.1,64.8,30.06,South,180,2.0,2.0,99,0.00,,,0.00,meteohub,2013-01-17 06:03:00,
2013-01-17 01:09:00,65.3,64.9,30.05,South,180,1.0,2.0,99,0.00,,,0.00,meteohub,2013-01-17 06:09:00,
2013-01-17 01:14:00,65.1,64.8,30.05,South,180,0.0,2.0,99,0.00,,,0.00,meteohub,2013-01-17 06:14:00,
2013-01-17 01:19:00,65.1,64.8,30.05,South,180,0.0,2.0,99,0.00,,,0.00,meteohub,2013-01-17 06:19:00,
2013-01-17 01:24:00,64.9,64.6,30.05,SE,135,0.0,2.0,99,0.00,,,0.00,meteohub,2013-01-17 06:24:00,
2013-01-17 01:29:00,64.8,64.4,30.05,South,180,0.0,1.0,99,0.00,,,0.00,meteohub,2013-01-17 06:29:00,
2013-01-17 01:34:00,64.4,64.0,30.06,South,180,0.0,0.0,99,0.00,,,0.00,meteohub,2013-01-17 06:34:00,
2013-01-17 01:39:00,64.2,63.3,30.05,South,180,0.0,1.0,97,0.00,,,0.00,meteohub,2013-01-17 06:39:00,
2013-01-17 01:44:00,63.9,63.0,30.05,South,180,0.0,1.0,97,0.00,,,0.00,meteohub,2013-01-17 06:44:00,
2013-01-17 01:49:00,63.7,62.8,30.05,South,180,0.0,0.0,97,0.00,,,0.00,meteohub,2013-01-17 06:49:00,
2013-01-17 01:54:00,63.7,62.8,30.05,South,180,0.0,0.0,97,0.00,,,0.00,meteohub,2013-01-17 06:54:00,
2013-01-17 01:59:00,63.5,62.6,30.05,South,180,0.0,0.0,97,0.00,,,0.00,meteohub,2013-01-17 06:59:00,
2013-01-17 02:04:00,63.3,62.4,30.05,South,180,1.0,0.0,97,0.00,,,0.00,meteohub,2013-01-17 07:04:00,
2013-01-17 02:09:00,63.3,62.4,30.05,South,180,0.0,1.0,97,0.00,,,0.00,meteohub,2013-01-17 07:09:00,
2013-01-17 02:14:00,63.1,62.2,30.05,South,180,0.0,1.0,97,0.00,,,0.00,meteohub,2013-01-17 07:14:00,
2013-01-17 02:19:00,63.1,62.2,30.05,South,180,0.0,1.0,97,0.00,,,0.00,meteohub,2013-01-17 07:19:00,
2013-01-17 02:24:00,63.1,62.2,30.05,South,180,0.0,1.0,97,0.00,,,0.00,meteohub,2013-01-17 07:24:00,
2013-01-17 02:29:00,63.0,62.1,30.05,South,180,0.0,1.0,97,0.00,,,0.00,meteohub,2013-01-17 07:29:00,
2013-01-17 02:34:00,62.8,61.9,30.04,West,270,0.0,0.0,97,0.00,,,0.00,meteohub,2013-01-17 07:34:00,
2013-01-17 02:39:00,62.6,61.7,30.04,West,270,0.0,0.0,97,0.00,,,0.00,meteohub,2013-01-17 07:39:00,
2013-01-17 02:44:00,62.4,61.9,30.04,West,270,0.0,0.0,98,0.00,,,0.00,meteohub,2013-01-17 07:44:00,
2013-01-17 02:50:00,62.2,61.7,30.04,West,270,0.0,0.0,98,0.00,,,0.00,meteohub,2013-01-17 07:50:00,
2013-01-17 02:55:00,62.1,61.5,30.04,West,270,0.0,0.0,98,0.00,,,0.00,meteohub,2013-01-17 07:55:00,
2013-01-17 03:00:00,62.1,61.5,30.04,SW,225,0.0,0.0,98,0.00,,,0.00,meteohub,2013-01-17 08:00:00,
2013-01-17 03:05:00,62.1,61.5,30.04,SW,225,0.0,0.0,98,0.00,,,0.00,meteohub,2013-01-17 08:05:00,
2013-01-17 03:10:00,62.2,61.7,30.04,SW,225,0.0,0.0,98,0.00,,,0.00,meteohub,2013-01-17 08:10:00,
2013-01-17 03:15:00,62.6,61.7,30.04,SW,225,0.0,0.0,97,0.00,,,0.00,meteohub,2013-01-17 08:15:00,
2013-01-17 03:20:00,62.6,61.7,30.04,South,180,0.0,0.0,97,0.00,,,0.00,meteohub,2013-01-17 08:20:00,
2013-01-17 03:25:00,62.8,61.9,30.04,SE,135,0.0,0.0,97,0.00,,,0.00,meteohub,2013-01-17 08:25:00,
2013-01-17 03:30:00,62.8,61.9,30.04,South,180,0.0,0.0,97,0.00,,,0.00,meteohub,2013-01-17 08:30:00,
2013-01-17 03:35:00,62.6,61.7,30.04,South,180,0.0,0.0,97,0.00,,,0.00,meteohub,2013-01-17 08:35:00,
2013-01-17 03:40:00,62.4,61.9,30.04,South,180,0.0,0.0,98,0.00,,,0.00,meteohub,2013-01-17 08:40:00,
2013-01-17 03:45:00,62.2,61.7,30.04,West,270,0.0,0.0,98,0.00,,,0.00,meteohub,2013-01-17 08:45:00,
2013-01-17 03:50:00,62.1,61.5,30.04,West,270,0.0,0.0,98,0.00,,,0.00,meteohub,2013-01-17 08:50:00,
2013-01-17 03:55:00,62.1,61.5,30.04,South,180,0.0,0.0,98,0.00,,,0.00,meteohub,2013-01-17 08:55:00,
2013-01-17 04:00:00,62.1,61.5,30.04,South,180,0.0,0.0,98,0.00,,,0.00,meteohub,2013-01-17 09:00:00,
2013-01-17 04:06:00,62.1,61.5,30.03,North,0,0.0,0.0,98,0.00,,,0.00,meteohub,2013-01-17 09:06:00,
2013-01-17 04:11:00,61.9,61.3,30.04,SW,225,0.0,0.0,98,0.00,,,0.00,meteohub,2013-01-17 09:11:00,
2013-01-17 04:16:00,61.9,61.3,30.03,South,180,0.0,0.0,98,0.00,,,0.00,meteohub,2013-01-17 09:16:00,
2013-01-17 04:21:00,61.9,61.3,30.03,West,270,0.0,0.0,98,0.00,,,0.00,meteohub,2013-01-17 09:21:00,
2013-01-17 04:26:00,61.7,61.2,30.03,West,270,0.0,0.0,98,0.00,,,0.00,meteohub,2013-01-17 09:26:00,
2013-01-17 04:31:00,61.7,61.2,30.04,West,270,0.0,0.0,98,0.00,,,0.00,meteohub,2013-01-17 09:31:00,
2013-01-17 04:36:00,61.5,61.0,30.04,West,270,0.0,0.0,98,0.00,,,0.00,meteohub,2013-01-17 09:36:00,
2013-01-17 04:41:00,61.3,60.8,30.04,South,180,0.0,0.0,98,0.00,,,0.00,meteohub,2013-01-17 09:41:00,
2013-01-17 04:46:00,61.2,60.6,30.04,South,180,0.0,0.0,98,0.00,,,0.00,meteohub,2013-01-17 09:46:00,
2013-01-17 04:51:00,61.2,60.6,30.03,South,180,0.0,0.0,98,0.00,,,0.00,meteohub,2013-01-17 09:51:00,
2013-01-17 04:56:00,61.0,60.4,30.03,South,180,0.0,0.0,98,0.00,,,0.00,meteohub,2013-01-17 09:56:00,
2013-01-17 05:01:00,61.0,60.4,30.03,South,180,0.0,0.0,98,0.00,,,0.00,meteohub,2013-01-17 10:01:00,
2013-01-17 05:06:00,61.2,60.6,30.03,South,180,0.0,0.0,98,0.00,,,0.00,meteohub,2013-01-17 10:06:00,
2013-01-17 05:11:00,61.2,60.6,30.03,South,180,1.0,0.0,98,0.00,,,0.00,meteohub,2013-01-17 10:11:00,
2013-01-17 05:16:00,61.3,60.8,30.03,SE,135,0.0,2.0,98,0.00,,,0.00,meteohub,2013-01-17 10:16:00,
2013-01-17 05:21:00,61.3,60.8,30.03,South,180,1.0,2.0,98,0.00,,,0.00,meteohub,2013-01-17 10:21:00,
2013-01-17 05:26:00,61.5,61.0,30.03,South,180,0.0,2.0,98,0.00,,,0.00,meteohub,2013-01-17 10:26:00,
2013-01-17 05:31:00,61.5,61.0,30.03,South,180,0.0,2.0,98,0.00,,,0.00,meteohub,2013-01-17 10:31:00,
2013-01-17 05:36:00,61.5,61.0,30.03,South,180,1.0,2.0,98,0.00,,,0.00,meteohub,2013-01-17 10:36:00,
2013-01-17 05:42:00,61.5,61.0,30.03,SE,135,2.0,2.0,98,0.00,,,0.00,meteohub,2013-01-17 10:42:00,
2013-01-17 05:47:00,61.7,61.2,30.03,South,180,2.0,2.0,98,0.00,,,0.00,meteohub,2013-01-17 10:47:00,
2013-01-17 05:52:00,61.7,61.2,30.03,SE,135,1.0,2.0,98,0.00,,,0.00,meteohub,2013-01-17 10:52:00,
2013-01-17 05:57:00,61.9,61.3,30.03,South,180,2.0,2.0,98,0.00,,,0.00,meteohub,2013-01-17 10:57:00,
2013-01-17 06:02:00,61.9,61.3,30.03,South,180,2.0,2.0,98,0.00,,,0.00,meteohub,2013-01-17 11:02:00,
2013-01-17 06:07:00,61.9,61.3,30.03,SW,225,2.0,2.0,98,0.00,,,0.00,meteohub,2013-01-17 11:07:00,
2013-01-17 06:12:00,61.9,61.3,30.03,South,180,2.0,2.0,98,0.00,,,0.00,meteohub,2013-01-17 11:12:00,
2013-01-17 06:17:00,61.9,61.3,30.03,SE,135,1.0,2.0,98,0.00,,,0.00,meteohub,2013-01-17 11:17:00,
2013-01-17 06:22:00,62.1,61.5,30.04,South,180,2.0,2.0,98,0.00,,,0.00,meteohub,2013-01-17 11:22:00,
2013-01-17 06:27:00,62.1,61.5,30.03,South,180,2.0,2.0,98,0.00,,,0.00,meteohub,2013-01-17 11:27:00,
2013-01-17 06:32:00,62.1,61.5,30.03,SE,135,1.0,2.0,98,0.00,,,0.00,meteohub,2013-01-17 11:32:00,
2013-01-17 06:37:00,62.1,61.5,30.04,South,180,0.0,2.0,98,0.00,,,0.00,meteohub,2013-01-17 11:37:00,
2013-01-17 06:42:00,62.1,61.5,30.04,South,180,0.0,2.0,98,0.00,,,0.00,meteohub,2013-01-17 11:42:00,
2013-01-17 06:47:00,62.1,61.5,30.04,South,180,0.0,2.0,98,0.00,,,0.00,meteohub,2013-01-17 11:47:00,
2013-01-17 06:52:00,62.1,61.5,30.04,SW,225,0.0,1.0,98,0.00,,,0.00,meteohub,2013-01-17 11:52:00,
2013-01-17 06:57:00,61.9,61.3,30.04,SW,225,0.0,2.0,98,0.00,,,0.00,meteohub,2013-01-17 11:57:00,
2013-01-17 07:03:00,61.9,61.3,30.04,South,180,2.0,2.0,98,0.00,,,0.00,meteohub,2013-01-17 12:03:00,
2013-01-17 07:08:00,62.2,61.7,30.04,South,180,1.0,2.0,98,0.00,,,0.00,meteohub,2013-01-17 12:08:00,
2013-01-17 07:13:00,62.4,61.9,30.04,SE,135,1.0,2.0,98,0.00,,,0.00,meteohub,2013-01-17 12:13:00,
2013-01-17 07:18:00,62.6,61.7,30.04,SE,135,2.0,2.0,97,0.00,,,0.00,meteohub,2013-01-17 12:18:00,
2013-01-17 07:23:00,62.6,61.7,30.04,South,180,1.0,2.0,97,0.00,,,0.00,meteohub,2013-01-17 12:23:00,
2013-01-17 07:28:00,62.6,61.7,30.04,SE,135,2.0,3.0,97,0.00,,,0.00,meteohub,2013-01-17 12:28:00,
2013-01-17 07:33:00,62.6,61.7,30.04,South,180,0.0,3.0,97,0.00,,,0.00,meteohub,2013-01-17 12:33:00,
2013-01-17 07:38:00,62.8,61.9,30.04,SW,225,0.0,2.0,97,0.00,,,0.00,meteohub,2013-01-17 12:38:00,
2013-01-17 07:43:00,62.8,61.9,30.04,South,180,0.0,2.0,97,0.00,,,0.00,meteohub,2013-01-17 12:43:00,
2013-01-17 07:48:00,63.0,62.1,30.04,SE,135,2.0,0.0,97,0.00,,,0.00,meteohub,2013-01-17 12:48:00,
2013-01-17 07:53:00,63.0,62.1,30.04,South,180,1.0,2.0,97,0.00,,,0.00,meteohub,2013-01-17 12:53:00,
2013-01-17 07:58:00,63.3,62.4,30.05,NNE,23,4.0,4.0,97,0.00,,,0.00,meteohub,2013-01-17 12:58:00,
2013-01-17 08:03:00,63.7,62.8,30.06,SE,135,1.0,2.0,97,0.00,,,0.00,meteohub,2013-01-17 13:03:00,
2013-01-17 08:08:00,64.0,63.1,30.05,South,180,2.0,4.0,97,0.00,,,0.00,meteohub,2013-01-17 13:08:00,
2013-01-17 08:13:00,64.2,63.3,30.04,SW,225,2.0,4.0,97,0.00,,,0.00,meteohub,2013-01-17 13:13:00,
2013-01-17 08:18:00,64.6,64.2,30.04,SW,225,2.0,4.0,99,0.00,,,0.00,meteohub,2013-01-17 13:18:00,
2013-01-17 08:23:00,64.8,64.4,30.04,SW,225,2.0,4.0,99,0.00,,,0.00,meteohub,2013-01-17 13:23:00,
2013-01-17 08:28:00,65.3,64.9,30.05,NE,45,4.0,4.0,99,0.00,,,0.00,meteohub,2013-01-17 13:28:00,
2013-01-17 08:33:00,65.8,65.5,30.05,SE,135,3.0,4.0,99,0.00,,,0.00,meteohub,2013-01-17 13:33:00,
2013-01-17 08:39:00,66.2,65.8,30.05,West,270,2.0,4.0,99,0.00,,,0.00,meteohub,2013-01-17 13:39:00,
2013-01-17 08:44:00,66.7,66.4,30.05,WSW,248,4.0,4.0,99,0.00,,,0.00,meteohub,2013-01-17 13:44:00,
2013-01-17 08:49:00,67.1,66.7,30.05,South,180,4.0,4.0,99,0.00,,,0.00,meteohub,2013-01-17 13:49:00,
2013-01-17 08:54:00,67.6,67.3,30.05,SE,135,2.0,7.0,99,0.00,,,0.00,meteohub,2013-01-17 13:54:00,
2013-01-17 08:59:00,68.2,67.8,30.06,SSE,158,2.0,7.0,99,0.00,,,0.00,meteohub,2013-01-17 13:59:00,
2013-01-17 09:04:00,68.4,67.8,30.05,South,180,8.0,8.0,98,0.00,,,0.00,meteohub,2013-01-17 14:04:00,
2013-01-17 09:09:00,69.1,68.2,30.06,South,180,4.0,8.0,97,0.00,,,0.00,meteohub,2013-01-17 14:09:00,
2013-01-17 09:14:00,69.1,67.8,30.06,South,180,9.0,9.0,96,0.00,,,0.00,meteohub,2013-01-17 14:14:00,
2013-01-17 09:19:00,69.1,67.6,30.06,South,180,3.0,9.0,95,0.00,,,0.00,meteohub,2013-01-17 14:19:00,
2013-01-17 09:24:00,69.3,67.8,30.06,SSE,158,4.0,9.0,95,0.00,,,0.00,meteohub,2013-01-17 14:24:00,
2013-01-17 09:29:00,69.6,68.2,30.06,SE,135,5.0,11.0,95,0.00,,,0.00,meteohub,2013-01-17 14:29:00,
2013-01-17 09:34:00,70.0,68.2,30.06,SW,225,5.0,11.0,94,0.00,,,0.00,meteohub,2013-01-17 14:34:00,
2013-01-17 09:39:00,70.2,68.4,30.06,SE,135,4.0,11.0,94,0.00,,,0.00,meteohub,2013-01-17 14:39:00,
2013-01-17 09:44:00,70.7,68.9,30.06,SSW,203,6.0,8.0,94,0.00,,,0.00,meteohub,2013-01-17 14:44:00,
2013-01-17 09:49:00,71.1,68.9,30.06,South,180,6.0,8.0,93,0.00,,,0.00,meteohub,2013-01-17 14:49:00,
2013-01-17 09:54:00,71.6,69.1,30.06,WSW,248,4.0,11.0,92,0.00,,,0.00,meteohub,2013-01-17 14:54:00,
2013-01-17 09:59:00,72.7,70.0,30.05,SW,225,3.0,11.0,91,0.00,,,0.00,meteohub,2013-01-17 14:59:00,
2013-01-17 10:04:00,73.6,70.5,30.05,South,180,9.0,10.0,90,0.00,,,0.00,meteohub,2013-01-17 15:04:00,
2013-01-17 10:09:00,73.8,70.0,30.05,SE,135,4.0,8.0,88,0.00,,,0.00,meteohub,2013-01-17 15:09:00,
2013-01-17 10:14:00,74.1,70.0,30.05,South,180,8.0,9.0,87,0.00,,,0.00,meteohub,2013-01-17 15:14:00,
2013-01-17 10:19:00,74.5,70.0,30.05,WSW,248,8.0,10.0,86,0.00,,,0.00,meteohub,2013-01-17 15:19:00,
2013-01-17 10:24:00,75.0,70.5,30.05,East,90,4.0,14.0,86,0.00,,,0.00,meteohub,2013-01-17 15:24:00,
2013-01-17 10:30:00,75.6,70.3,30.05,West,270,4.0,14.0,84,0.00,,,0.00,meteohub,2013-01-17 15:30:00,
2013-01-17 10:35:00,75.6,69.3,30.04,West,270,5.0,14.0,81,0.00,,,0.00,meteohub,2013-01-17 15:35:00,
2013-01-17 10:40:00,76.1,69.4,30.04,SSE,158,6.0,11.0,80,0.00,,,0.00,meteohub,2013-01-17 15:40:00,
2013-01-17 10:45:00,76.8,70.2,30.04,SW,225,3.0,11.0,80,0.00,,,0.00,meteohub,2013-01-17 15:45:00,
2013-01-17 10:50:00,77.2,69.4,30.04,South,180,6.0,11.0,77,0.00,,,0.00,meteohub,2013-01-17 15:50:00,
2013-01-17 10:55:00,77.7,69.6,30.04,South,180,11.0,11.0,76,0.00,,,0.00,meteohub,2013-01-17 15:55:00,
2013-01-17 11:00:00,78.1,69.1,30.04,South,180,10.0,11.0,74,0.00,,,0.00,meteohub,2013-01-17 16:00:00,
2013-01-17 11:05:00,78.1,68.7,30.03,WNW,293,5.0,11.0,73,0.00,,,0.00,meteohub,2013-01-17 16:05:00,
2013-01-17 11:10:00,78.4,68.7,30.03,South,180,11.0,11.0,72,0.00,,,0.00,meteohub,2013-01-17 16:10:00,
2013-01-17 11:15:00,78.6,69.3,30.03,SW,225,8.0,11.0,73,0.00,,,0.00,meteohub,2013-01-17 16:15:00,
2013-01-17 11:20:00,78.6,68.4,30.03,SSE,158,10.0,12.0,71,0.00,,,0.00,meteohub,2013-01-17 16:20:00,
2013-01-17 11:25:00,78.8,68.5,30.02,SE,135,5.0,12.0,71,0.00,,,0.00,meteohub,2013-01-17 16:25:00,
2013-01-17 11:30:00,79.5,69.3,30.02,SW,225,3.0,14.0,71,0.00,,,0.00,meteohub,2013-01-17 16:30:00,
2013-01-17 11:35:00,79.7,67.3,30.01,SW,225,8.0,14.0,66,0.00,,,0.00,meteohub,2013-01-17 16:35:00,
2013-01-17 11:40:00,79.0,67.1,30.01,SW,225,8.0,14.0,67,0.00,,,0.00,meteohub,2013-01-17 16:40:00,
2013-01-17 11:45:00,78.1,67.5,30.01,West,270,4.0,14.0,70,0.00,,,0.00,meteohub,2013-01-17 16:45:00,
2013-01-17 11:50:00,77.5,68.2,30.01,SW,225,13.0,14.0,73,0.00,,,0.00,meteohub,2013-01-17 16:50:00,
2013-01-17 11:55:00,77.0,68.0,30.01,South,180,4.0,14.0,74,0.00,,,0.00,meteohub,2013-01-17 16:55:00,
2013-01-17 12:00:00,76.8,68.4,30.01,SW,225,5.0,14.0,75,0.00,,,0.00,meteohub,2013-01-17 17:00:00,
2013-01-17 12:05:00,76.8,68.4,30.01,West,270,6.0,13.0,75,0.00,,,0.00,meteohub,2013-01-17 17:05:00,
2013-01-17 12:10:00,76.6,67.6,30.01,SW,225,8.0,11.0,74,0.00,,,0.00,meteohub,2013-01-17 17:10:00,
2013-01-17 12:16:00,76.3,67.5,30.00,SW,225,3.0,12.0,74,0.00,,,0.00,meteohub,2013-01-17 17:16:00,
2013-01-17 12:21:00,75.9,67.5,30.00,South,180,3.0,13.0,75,0.00,,,0.00,meteohub,2013-01-17 17:21:00,
2013-01-17 12:26:00,75.7,67.3,30.00,West,270,7.0,13.0,75,0.00,,,0.00,meteohub,2013-01-17 17:26:00,
2013-01-17 12:31:00,75.7,67.3,30.00,West,270,4.0,13.0,75,0.00,,,0.00,meteohub,2013-01-17 17:31:00,
2013-01-17 12:36:00,75.9,67.5,30.00,West,270,9.0,13.0,75,0.00,,,0.00,meteohub,2013-01-17 17:36:00,
2013-01-17 12:41:00,74.8,66.7,30.01,SSE,158,9.0,17.0,76,0.00,,,0.00,meteohub,2013-01-17 17:41:00,
2013-01-17 12:46:00,72.5,65.3,30.01,WNW,293,9.0,17.0,78,0.00,,,0.00,meteohub,2013-01-17 17:46:00,
2013-01-17 12:51:00,70.5,65.1,30.01,NW,315,10.0,17.0,83,0.00,,,0.00,meteohub,2013-01-17 17:51:00,
2013-01-17 12:56:00,69.3,65.5,30.01,SW,225,9.0,10.0,88,0.00,,,0.00,meteohub,2013-01-17 17:56:00,
2013-01-17 13:01:00,68.4,65.3,30.00,North,0,6.0,10.0,90,0.00,,,0.00,meteohub,2013-01-17 18:01:00,
2013-01-17 13:06:00,68.0,65.7,30.00,NW,315,8.0,11.0,92,0.00,,,0.00,meteohub,2013-01-17 18:06:00,
2013-01-17 13:11:00,67.8,66.0,30.00,South,180,6.0,11.0,94,0.00,,,0.00,meteohub,2013-01-17 18:11:00,
2013-01-17 13:16:00,67.6,65.8,30.00,South,180,6.0,12.0,94,0.00,,,0.00,meteohub,2013-01-17 18:16:00,
2013-01-17 13:21:00,67.5,65.7,30.00,SW,225,8.0,12.0,94,0.00,,,0.00,meteohub,2013-01-17 18:21:00,
2013-01-17 13:26:00,67.5,65.7,30.00,West,270,8.0,12.0,94,0.00,,,0.00,meteohub,2013-01-17 18:26:00,
2013-01-17 13:31:00,67.6,65.5,29.99,SW,225,8.0,11.0,93,0.00,,,0.00,meteohub,2013-01-17 18:31:00,
2013-01-17 13:36:00,67.5,65.1,29.99,South,180,8.0,11.0,92,0.00,,,0.00,meteohub,2013-01-17 18:36:00,
2013-01-17 13:41:00,67.3,64.9,29.99,NW,315,8.0,11.0,92,0.00,,,0.00,meteohub,2013-01-17 18:41:00,
2013-01-17 13:47:00,66.9,64.6,30.00,NE,45,6.0,11.0,92,0.00,,,0.00,meteohub,2013-01-17 18:47:00,
2013-01-17 13:52:00,66.4,63.7,29.99,SW,225,8.0,8.0,91,0.00,,,0.00,meteohub,2013-01-17 18:52:00,
2013-01-17 13:57:00,66.2,63.1,29.99,WNW,293,4.0,10.0,90,0.00,,,0.00,meteohub,2013-01-17 18:57:00,
2013-01-17 14:02:00,66.2,63.1,29.99,NW,315,8.0,10.0,90,0.00,,,0.00,meteohub,2013-01-17 19:02:00,
2013-01-17 14:07:00,66.2,63.1,30.00,North,0,8.0,10.0,90,0.00,,,0.00,meteohub,2013-01-17 19:07:00,
2013-01-17 14:12:00,65.8,62.8,29.99,NE,45,5.0,11.0,90,0.00,,,0.00,meteohub,2013-01-17 19:12:00,
2013-01-17 14:17:00,65.7,62.6,30.00,NW,315,15.0,15.0,90,0.00,,,0.00,meteohub,2013-01-17 19:17:00,
2013-01-17 14:22:00,65.1,62.1,30.00,North,0,8.0,15.0,90,0.00,,,0.00,meteohub,2013-01-17 19:22:00,
2013-01-17 14:27:00,64.9,61.9,30.00,SW,225,9.0,15.0,90,0.00,,,0.00,meteohub,2013-01-17 19:27:00,
2013-01-17 14:32:00,64.6,61.3,30.00,NW,315,8.0,15.0,89,0.00,,,0.00,meteohub,2013-01-17 19:32:00,
2013-01-17 14:37:00,63.9,60.8,30.01,West,270,2.0,15.0,90,0.00,,,0.00,meteohub,2013-01-17 19:37:00,
2013-01-17 14:42:00,63.3,60.6,30.01,NE,45,6.0,15.0,91,0.00,,,0.00,meteohub,2013-01-17 19:42:00,
2013-01-17 14:47:00,62.6,59.9,30.01,NW,315,8.0,12.0,91,0.00,,,0.00,meteohub,2013-01-17 19:47:00,
2013-01-17 14:52:00,62.2,59.9,30.01,West,270,9.0,14.0,92,0.00,,,0.00,meteohub,2013-01-17 19:52:00,
2013-01-17 14:57:00,62.1,59.7,30.02,North,0,10.0,14.0,92,0.00,,,0.00,meteohub,2013-01-17 19:57:00,
2013-01-17 15:02:00,61.5,58.8,30.01,North,0,10.0,13.0,91,0.00,,,0.00,meteohub,2013-01-17 20:02:00,
2013-01-17 15:07:00,60.8,58.1,30.02,South,180,6.0,13.0,91,0.00,,,0.00,meteohub,2013-01-17 20:07:00,
2013-01-17 15:13:00,60.4,58.1,30.02,SW,225,8.0,13.0,92,0.00,,,0.00,meteohub,2013-01-17 20:13:00,
2013-01-17 15:18:00,60.4,57.7,30.03,SW,225,7.0,11.0,91,0.00,,,0.00,meteohub,2013-01-17 20:18:00,
2013-01-17 15:23:00,60.4,57.6,30.03,SW,225,10.0,11.0,90,0.00,,,0.00,meteohub,2013-01-17 20:23:00,
2013-01-17 15:28:00,60.6,57.0,30.03,NW,315,6.0,11.0,88,0.00,,,0.00,meteohub,2013-01-17 20:28:00,
2013-01-17 15:33:00,60.6,56.5,30.03,West,270,7.0,11.0,86,0.00,,,0.00,meteohub,2013-01-17 20:33:00,
2013-01-17 15:38:00,60.6,56.1,30.03,NW,315,8.0,11.0,85,0.00,,,0.00,meteohub,2013-01-17 20:38:00,
2013-01-17 15:43:00,60.6,56.1,30.03,SW,225,5.0,12.0,85,0.00,,,0.00,meteohub,2013-01-17 20:43:00,
2013-01-17 15:48:00,60.4,55.9,30.04,NW,315,4.0,12.0,85,0.00,,,0.00,meteohub,2013-01-17 20:48:00,
2013-01-17 15:53:00,60.4,55.9,30.04,NW,315,10.0,12.0,85,0.00,,,0.00,meteohub,2013-01-17 20:53:00,
2013-01-17 15:58:00,60.3,55.8,30.04,SW,225,8.0,11.0,85,0.00,,,0.00,meteohub,2013-01-17 20:58:00,
2013-01-17 16:03:00,60.3,55.8,30.04,SW,225,5.0,10.0,85,0.00,,,0.00,meteohub,2013-01-17 21:03:00,
2013-01-17 16:08:00,60.1,55.6,30.04,NW,315,15.0,15.0,85,0.00,,,0.00,meteohub,2013-01-17 21:08:00,
2013-01-17 16:13:00,60.1,55.2,30.04,West,270,11.0,16.0,84,0.00,,,0.00,meteohub,2013-01-17 21:13:00,
2013-01-17 16:18:00,60.1,54.9,30.05,West,270,4.0,16.0,83,0.00,,,0.00,meteohub,2013-01-17 21:18:00,
2013-01-17 16:23:00,60.1,54.9,30.05,NE,45,5.0,16.0,83,0.00,,,0.00,meteohub,2013-01-17 21:23:00,
2013-01-17 16:28:00,59.9,54.7,30.05,West,270,10.0,11.0,83,0.00,,,0.00,meteohub,2013-01-17 21:28:00,
2013-01-17 16:33:00,59.9,54.7,30.05,NE,45,6.0,11.0,83,0.00,,,0.00,meteohub,2013-01-17 21:33:00,
2013-01-17 16:38:00,59.9,54.7,30.05,SW,225,10.0,11.0,83,0.00,,,0.00,meteohub,2013-01-17 21:38:00,
2013-01-17 16:43:00,59.9,54.7,30.05,SW,225,8.0,11.0,83,0.00,,,0.00,meteohub,2013-01-17 21:43:00,
2013-01-17 16:48:00,59.7,54.0,30.06,SW,225,3.0,11.0,81,0.00,,,0.00,meteohub,2013-01-17 21:48:00,
2013-01-17 16:53:00,59.7,54.0,30.05,SW,225,8.0,11.0,81,0.00,,,0.00,meteohub,2013-01-17 21:53:00,
2013-01-17 16:58:00,59.5,53.1,30.05,South,180,4.0,11.0,79,0.00,,,0.00,meteohub,2013-01-17 21:58:00,
2013-01-17 17:04:00,59.5,53.1,30.04,North,0,4.0,11.0,79,0.00,,,0.00,meteohub,2013-01-17 22:04:00,
2013-01-17 17:09:00,59.7,52.9,30.06,North,0,5.0,11.0,78,0.00,,,0.00,meteohub,2013-01-17 22:09:00,
2013-01-17 17:14:00,59.7,52.9,30.06,SW,225,9.0,11.0,78,0.00,,,0.00,meteohub,2013-01-17 22:14:00,
2013-01-17 17:19:00,59.7,51.8,30.06,West,270,8.0,11.0,75,0.00,,,0.00,meteohub,2013-01-17 22:19:00,
2013-01-17 17:24:00,59.7,51.8,30.06,West,270,8.0,10.0,75,0.00,,,0.00,meteohub,2013-01-17 22:24:00,
2013-01-17 17:29:00,59.5,51.3,30.06,SW,225,4.0,14.0,74,0.00,,,0.00,meteohub,2013-01-17 22:29:00,
2013-01-17 17:34:00,59.5,51.6,30.06,SW,225,4.0,14.0,75,0.00,,,0.00,meteohub,2013-01-17 22:34:00,
2013-01-17 17:39:00,59.5,51.3,30.06,West,270,4.0,14.0,74,0.00,,,0.00,meteohub,2013-01-17 22:39:00,
2013-01-17 17:44:00,59.4,51.1,30.06,NW,315,7.0,9.0,74,0.00,,,0.00,meteohub,2013-01-17 22:44:00,
2013-01-17 17:49:00,59.4,51.1,30.06,SW,225,12.0,12.0,74,0.00,,,0.00,meteohub,2013-01-17 22:49:00,
2013-01-17 17:54:00,59.4,51.1,30.06,South,180,3.0,12.0,74,0.00,,,0.00,meteohub,2013-01-17 22:54:00,
2013-01-17 17:59:00,59.4,51.1,30.06,West,270,6.0,12.0,74,0.00,,,0.00,meteohub,2013-01-17 22:59:00,
2013-01-17 18:04:00,59.4,51.1,30.06,East,90,3.0,12.0,74,0.00,,,0.00,meteohub,2013-01-17 23:04:00,
2013-01-17 18:09:00,59.4,51.1,30.06,SW,225,11.0,11.0,74,0.00,,,0.00,meteohub,2013-01-17 23:09:00,
2013-01-17 18:14:00,59.2,50.5,30.06,West,270,11.0,11.0,73,0.00,,,0.00,meteohub,2013-01-17 23:14:00,
2013-01-17 18:19:00,59.2,50.2,30.07,SW,225,4.0,11.0,72,0.00,,,0.00,meteohub,2013-01-17 23:19:00,
2013-01-17 18:24:00,59.2,49.8,30.07,West,270,2.0,11.0,71,0.00,,,0.00,meteohub,2013-01-17 23:24:00,
2013-01-17 18:29:00,59.0,49.6,30.07,SW,225,3.0,11.0,71,0.00,,,0.00,meteohub,2013-01-17 23:29:00,
2013-01-17 18:34:00,59.0,49.6,30.07,West,270,6.0,11.0,71,0.00,,,0.00,meteohub,2013-01-17 23:34:00,
2013-01-17 18:39:00,58.8,49.8,30.07,SW,225,8.0,10.0,72,0.00,,,0.00,meteohub,2013-01-17 23:39:00,
2013-01-17 18:44:00,58.5,49.5,30.08,SW,225,4.0,11.0,72,0.00,,,0.00,meteohub,2013-01-17 23:44:00,
2013-01-17 18:49:00,58.3,49.3,30.08,NW,315,4.0,11.0,72,0.00,,,0.00,meteohub,2013-01-17 23:49:00,
2013-01-17 18:54:00,58.1,48.7,30.08,West,270,10.0,11.0,71,0.00,,,0.00,meteohub,2013-01-17 23:54:00,
2013-01-17 19:00:00,57.9,48.6,30.08,West,270,7.0,14.0,71,0.00,,,0.00,meteohub,2013-01-18 00:00:00,
2013-01-17 19:05:00,57.9,48.2,30.08,NNE,23,3.0,14.0,70,0.00,,,0.00,meteohub,2013-01-18 00:05:00,
2013-01-17 19:10:00,57.7,48.4,30.09,West,270,1.0,14.0,71,0.00,,,0.00,meteohub,2013-01-18 00:10:00,
2013-01-17 19:15:00,57.6,48.6,30.08,SW,225,4.0,8.0,72,0.00,,,0.00,meteohub,2013-01-18 00:15:00,
2013-01-17 19:20:00,57.4,48.7,30.08,East,90,3.0,7.0,73,0.00,,,0.00,meteohub,2013-01-18 00:20:00,
2013-01-17 19:25:00,57.2,48.6,30.09,SSW,203,4.0,8.0,73,0.00,,,0.00,meteohub,2013-01-18 00:25:00,
2013-01-17 19:30:00,57.2,48.6,30.09,SW,225,4.0,8.0,73,0.00,,,0.00,meteohub,2013-01-18 00:30:00,
2013-01-17 19:35:00,57.2,48.6,30.09,SW,225,5.0,8.0,73,0.00,,,0.00,meteohub,2013-01-18 00:35:00,
2013-01-17 19:40:00,57.2,48.6,30.09,SW,225,4.0,9.0,73,0.00,,,0.00,meteohub,2013-01-18 00:40:00,
2013-01-17 19:45:00,57.0,49.1,30.09,SW,225,4.0,10.0,75,0.00,,,0.00,meteohub,2013-01-18 00:45:00,
2013-01-17 19:50:00,57.0,49.1,30.10,South,180,5.0,10.0,75,0.00,,,0.00,meteohub,2013-01-18 00:50:00,
2013-01-17 19:55:00,56.8,48.9,30.09,NW,315,4.0,10.0,75,0.00,,,0.00,meteohub,2013-01-18 00:55:00,
2013-01-17 20:00:00,56.8,48.9,30.10,NW,315,4.0,6.0,75,0.00,,,0.00,meteohub,2013-01-18 01:00:00,
2013-01-17 20:05:00,56.7,48.7,30.10,NW,315,3.0,7.0,75,0.00,,,0.00,meteohub,2013-01-18 01:05:00,
2013-01-17 20:10:00,56.5,48.9,30.10,SW,225,7.0,8.0,76,0.00,,,0.00,meteohub,2013-01-18 01:10:00,
2013-01-17 20:15:00,56.5,48.9,30.10,SW,225,4.0,8.0,76,0.00,,,0.00,meteohub,2013-01-18 01:15:00,
2013-01-17 20:20:00,56.3,48.9,30.10,SW,225,5.0,8.0,76,0.00,,,0.00,meteohub,2013-01-18 01:20:00,
2013-01-17 20:25:00,56.1,48.7,30.11,West,270,5.0,7.0,76,0.00,,,0.00,meteohub,2013-01-18 01:25:00,
2013-01-17 20:30:00,56.1,48.7,30.11,North,0,2.0,7.0,76,0.00,,,0.00,meteohub,2013-01-18 01:30:00,
2013-01-17 20:36:00,56.1,48.9,30.11,SW,225,8.0,10.0,77,0.00,,,0.00,meteohub,2013-01-18 01:36:00,
2013-01-17 20:41:00,56.5,48.9,30.11,SW,225,5.0,10.0,76,0.00,,,0.00,meteohub,2013-01-18 01:41:00,
2013-01-17 20:46:00,56.7,49.1,30.11,West,270,4.0,10.0,76,0.00,,,0.00,meteohub,2013-01-18 01:46:00,
2013-01-17 20:51:00,56.7,49.1,30.12,East,90,6.0,10.0,76,0.00,,,0.00,meteohub,2013-01-18 01:51:00,
2013-01-17 20:56:00,56.8,49.3,30.12,SW,225,5.0,11.0,76,0.00,,,0.00,meteohub,2013-01-18 01:56:00,
2013-01-17 21:01:00,56.8,49.3,30.12,SW,225,3.0,11.0,76,0.00,,,0.00,meteohub,2013-01-18 02:01:00,
2013-01-17 21:06:00,56.8,48.9,30.12,SW,225,6.0,11.0,75,0.00,,,0.00,meteohub,2013-01-18 02:06:00,
2013-01-17 21:11:00,56.7,48.7,30.12,West,270,3.0,10.0,75,0.00,,,0.00,meteohub,2013-01-18 02:11:00,
2013-01-17 21:16:00,56.5,48.7,30.11,NW,315,5.0,10.0,75,0.00,,,0.00,meteohub,2013-01-18 02:16:00,
2013-01-17 21:21:00,56.3,48.6,30.12,West,270,6.0,10.0,75,0.00,,,0.00,meteohub,2013-01-18 02:21:00,
2013-01-17 21:26:00,56.1,48.4,30.12,South,180,7.0,8.0,75,0.00,,,0.00,meteohub,2013-01-18 02:26:00,
2013-01-17 21:31:00,55.9,48.2,30.12,NW,315,8.0,11.0,75,0.00,,,0.00,meteohub,2013-01-18 02:31:00,
2013-01-17 21:36:00,55.8,47.7,30.12,SW,225,7.0,11.0,74,0.00,,,0.00,meteohub,2013-01-18 02:36:00,
2013-01-17 21:41:00,55.4,46.9,30.12,NW,315,9.0,11.0,73,0.00,,,0.00,meteohub,2013-01-18 02:41:00,
2013-01-17 21:46:00,55.4,46.9,30.12,South,180,4.0,9.0,73,0.00,,,0.00,meteohub,2013-01-18 02:46:00,
2013-01-17 21:51:00,55.2,47.1,30.12,SW,225,10.0,13.0,74,0.00,,,0.00,meteohub,2013-01-18 02:51:00,
2013-01-17 21:56:00,55.0,46.9,30.12,NW,315,8.0,13.0,74,0.00,,,0.00,meteohub,2013-01-18 02:56:00,
2013-01-17 22:01:00,54.9,46.8,30.12,North,0,8.0,13.0,74,0.00,,,0.00,meteohub,2013-01-18 03:01:00,
2013-01-17 22:06:00,54.7,46.9,30.12,SW,225,5.0,10.0,75,0.00,,,0.00,meteohub,2013-01-18 03:06:00,
2013-01-17 22:12:00,54.7,46.9,30.12,SW,225,4.0,8.0,75,0.00,,,0.00,meteohub,2013-01-18 03:12:00,
2013-01-17 22:17:00,54.5,47.1,30.12,SW,225,8.0,11.0,76,0.00,,,0.00,meteohub,2013-01-18 03:17:00,
2013-01-17 22:22:00,54.5,47.1,30.12,SW,225,8.0,11.0,76,0.00,,,0.00,meteohub,2013-01-18 03:22:00,
2013-01-17 22:27:00,54.3,46.9,30.12,South,180,4.0,11.0,76,0.00,,,0.00,meteohub,2013-01-18 03:27:00,
2013-01-17 22:32:00,54.3,47.3,30.12,NW,315,9.0,9.0,77,0.00,,,0.00,meteohub,2013-01-18 03:32:00,
2013-01-17 22:37:00,54.1,47.1,30.12,SE,135,4.0,9.0,77,0.00,,,0.00,meteohub,2013-01-18 03:37:00,
2013-01-17 22:42:00,54.1,47.5,30.12,NW,315,5.0,9.0,78,0.00,,,0.00,meteohub,2013-01-18 03:42:00,
2013-01-17 22:47:00,54.0,47.3,30.12,West,270,7.0,9.0,78,0.00,,,0.00,meteohub,2013-01-18 03:47:00,
2013-01-17 22:52:00,54.0,47.3,30.12,West,270,7.0,7.0,78,0.00,,,0.00,meteohub,2013-01-18 03:52:00,
2013-01-17 22:57:00,53.6,47.3,30.12,North,0,2.0,9.0,79,0.00,,,0.00,meteohub,2013-01-18 03:57:00,
2013-01-17 23:02:00,53.6,47.3,30.13,SW,225,2.0,9.0,79,0.00,,,0.00,meteohub,2013-01-18 04:02:00,
2013-01-17 23:07:00,53.6,47.7,30.12,SW,225,5.0,9.0,80,0.00,,,0.00,meteohub,2013-01-18 04:07:00,
2013-01-17 23:12:00,53.4,47.7,30.12,West,270,8.0,8.0,81,0.00,,,0.00,meteohub,2013-01-18 04:12:00,
2013-01-17 23:17:00,53.4,47.1,30.13,West,270,4.0,8.0,79,0.00,,,0.00,meteohub,2013-01-18 04:17:00,
2013-01-17 23:22:00,53.2,46.6,30.13,SW,225,4.0,11.0,78,0.00,,,0.00,meteohub,2013-01-18 04:22:00,
2013-01-17 23:27:00,53.1,46.4,30.13,North,0,6.0,11.0,78,0.00,,,0.00,meteohub,2013-01-18 04:27:00,
2013-01-17 23:32:00,53.1,46.0,30.13,NW,315,5.0,11.0,77,0.00,,,0.00,meteohub,2013-01-18 04:32:00,
2013-01-17 23:38:00,52.9,45.9,30.13,North,0,5.0,10.0,77,0.00,,,0.00,meteohub,2013-01-18 04:38:00,
2013-01-17 23:43:00,52.9,45.9,30.13,West,270,2.0,10.0,77,0.00,,,0.00,meteohub,2013-01-18 04:43:00,
2013-01-17 23:48:00,52.7,45.3,30.13,North,0,4.0,10.0,76,0.00,,,0.00,meteohub,2013-01-18 04:48:00,
2013-01-17 23:53:00,52.7,45.3,30.14,North,0,1.0,8.0,76,0.00,,,0.00,meteohub,2013-01-18 04:53:00,
2013-01-17 23:58:00,52.5,45.1,30.13,NW,315,2.0,8.0,76,0.00,,,0.00,meteohub,2013-01-18 04:58:00,